Time;durP1;ratioP1;P1;durP2;ratioP2;P2;SDS_P1;SDS_P2;PMS_P1;PMS_P2;Temp;Humidity;BMP_temperature;BMP_pressure;BME280_temperature;BME280_humidity;BME280_pressure;Samples;Min_cycle;Max_cycle;Signal;HPM_P1;HPM_P2
2021/07/08 00:01:18;;;;;;;4.43;4.07;;;;;;;17.96;100.00;101220.09;4968456;28;20234;-73
2021/07/08 00:03:49;;;;;;;5.30;4.25;;;;;;;17.89;100.00;101214.19;4952869;29;20175;-75
2021/07/08 00:06:14;;;;;;;4.40;4.00;;;;;;;17.86;100.00;101212.06;4950964;28;20210;-73
2021/07/08 00:08:40;;;;;;;6.38;4.05;;;;;;;17.91;100.00;101211.94;4988956;28;20226;-75
2021/07/08 00:11:05;;;;;;;8.00;5.13;;;;;;;17.94;100.00;101211.34;4975161;28;20234;-74
2021/07/08 00:13:31;;;;;;;7.38;4.68;;;;;;;17.94;100.00;101214.09;4975772;28;20729;-73
2021/07/08 00:16:01;;;;;;;4.50;4.10;;;;;;;17.83;100.00;101209.91;4975833;28;20690;-73
2021/07/08 00:18:30;;;;;;;5.35;4.22;;;;;;;17.84;100.00;101211.56;4976594;28;20222;-73
2021/07/08 00:20:58;;;;;;;4.80;4.30;;;;;;;18.01;100.00;101214.50;4972390;28;20214;-73
2021/07/08 00:23:24;;;;;;;5.15;4.38;;;;;;;18.12;100.00;101210.44;4943272;28;20243;-73
2021/07/08 00:25:53;;;;;;;7.63;4.22;;;;;;;18.19;100.00;101208.91;4975194;28;20213;-74
2021/07/08 00:28:19;;;;;;;4.70;4.30;;;;;;;18.18;100.00;101213.56;4976896;28;20258;-75
2021/07/08 00:30:49;;;;;;;6.60;3.95;;;;;;;18.10;100.00;101208.00;4975993;28;20237;-74
2021/07/08 00:33:17;;;;;;;6.72;4.32;;;;;;;18.17;100.00;101211.16;4944512;28;20183;-73
2021/07/08 00:35:43;;;;;;;4.40;3.88;;;;;;;18.10;100.00;101219.00;4957256;28;20223;-73
2021/07/08 00:38:13;;;;;;;4.57;4.13;;;;;;;18.03;100.00;101221.31;4975033;28;20222;-74
2021/07/08 00:40:39;;;;;;;4.35;3.97;;;;;;;17.76;100.00;101217.75;4975637;28;20238;-75
2021/07/08 00:43:05;;;;;;;4.40;3.53;;;;;;;17.88;100.00;101223.56;4975593;28;20195;-74
2021/07/08 00:45:33;;;;;;;3.83;3.38;;;;;;;17.70;100.00;101221.72;4958223;28;20565;-74
2021/07/08 00:47:58;;;;;;;5.70;4.05;;;;;;;17.88;100.00;101229.88;4974905;28;20190;-76
2021/07/08 00:50:36;;;;;;;5.82;3.80;;;;;;;17.99;100.00;101225.00;4971607;28;20273;-75
2021/07/08 00:53:05;;;;;;;4.30;3.83;;;;;;;17.90;100.00;101222.13;4971294;28;20249;-75
2021/07/08 00:55:31;;;;;;;4.63;3.80;;;;;;;17.94;100.00;101214.91;4940298;28;20227;-74
2021/07/08 00:57:59;;;;;;;6.68;4.10;;;;;;;17.88;100.00;101220.81;4971512;28;20206;-74
2021/07/08 01:00:29;;;;;;;5.32;3.97;;;;;;;17.76;100.00;101209.50;4974311;28;20273;-75
2021/07/08 01:02:57;;;;;;;4.72;3.58;;;;;;;17.83;100.00;101215.41;4971161;28;20185;-74
2021/07/08 01:05:33;;;;;;;5.93;4.13;;;;;;;17.88;100.00;101218.06;4942509;28;20564;-75
2021/07/08 01:08:01;;;;;;;4.05;3.60;;;;;;;17.86;100.00;101221.13;4963583;28;20186;-75
2021/07/08 01:10:29;;;;;;;5.22;3.92;;;;;;;17.86;100.00;101225.81;4958400;28;20218;-75
2021/07/08 01:12:55;;;;;;;4.35;3.95;;;;;;;17.82;100.00;101224.81;4971593;28;20568;-75
2021/07/08 01:15:25;;;;;;;6.20;4.32;;;;;;;17.74;100.00;101223.53;4971257;28;20214;-75
2021/07/08 01:17:51;;;;;;;6.15;4.50;;;;;;;17.60;100.00;101221.94;4981422;28;20277;-74
2021/07/08 01:20:23;;;;;;;5.00;4.18;;;;;;;17.52;100.00;101225.38;4950605;28;20680;-74
2021/07/08 01:22:57;;;;;;;4.63;4.13;;;;;;;17.34;100.00;101218.03;4931295;29;20198;-73
2021/07/08 01:25:30;;;;;;;5.72;5.05;;;;;;;17.28;100.00;101207.44;4940345;28;20178;-74
2021/07/08 01:27:58;;;;;;;6.63;5.00;;;;;;;17.20;100.00;101212.84;4958283;28;20185;-74
2021/07/08 01:30:27;;;;;;;7.07;4.65;;;;;;;17.19;100.00;101211.19;4990312;28;20305;-74
2021/07/08 01:32:55;;;;;;;5.05;4.38;;;;;;;17.20;100.00;101208.16;4958537;28;20190;-74
2021/07/08 01:35:25;;;;;;;5.35;4.70;;;;;;;17.23;100.00;101212.22;4958161;28;20236;-74
2021/07/08 01:37:51;;;;;;;5.72;5.13;;;;;;;17.25;100.00;101210.81;4974119;28;20191;-73
2021/07/08 01:40:19;;;;;;;6.95;4.60;;;;;;;17.16;100.00;101207.13;4973650;28;20614;-73
2021/07/08 01:42:48;;;;;;;5.03;4.63;;;;;;;17.19;100.00;101205.69;4975000;28;20298;-74
2021/07/08 01:45:18;;;;;;;6.45;4.60;;;;;;;17.28;100.00;101199.19;4958994;28;20270;-74
2021/07/08 01:47:44;;;;;;;6.05;4.20;;;;;;;17.33;100.00;101203.81;4958222;28;20186;-74
2021/07/08 01:50:15;;;;;;;5.03;4.57;;;;;;;17.35;100.00;101211.41;4967157;28;20758;-73
2021/07/08 01:52:41;;;;;;;4.45;3.78;;;;;;;17.31;100.00;101206.00;4937196;28;20198;-73
2021/07/08 01:55:07;;;;;;;4.13;3.70;;;;;;;17.14;100.00;101200.25;4973527;28;20218;-73
2021/07/08 01:57:33;;;;;;;3.97;3.65;;;;;;;17.11;100.00;101212.66;4957958;28;20684;-74
2021/07/08 01:59:58;;;;;;;5.65;4.00;;;;;;;17.02;100.00;101208.16;4957387;28;20289;-74
2021/07/08 02:02:26;;;;;;;5.05;4.30;;;;;;;17.05;100.00;101215.78;4973636;28;20590;-74
2021/07/08 02:04:56;;;;;;;4.32;3.92;;;;;;;16.95;100.00;101214.03;4974731;28;20279;-73
2021/07/08 02:07:22;;;;;;;5.38;4.30;;;;;;;16.91;100.00;101201.22;4957393;28;20230;-73
2021/07/08 02:09:50;;;;;;;4.70;4.28;;;;;;;16.68;100.00;101196.69;4957468;28;20206;-73
2021/07/08 02:12:21;;;;;;;5.05;4.40;;;;;;;16.78;100.00;101207.47;4974441;28;20693;-73
2021/07/08 02:14:49;;;;;;;4.55;4.05;;;;;;;16.38;100.00;101207.28;4973837;28;20218;-74
2021/07/08 02:17:14;;;;;;;4.10;3.80;;;;;;;16.33;100.00;101203.81;4957090;28;20226;-74
2021/07/08 02:19:47;;;;;;;4.60;4.30;;;;;;;16.63;100.00;101210.47;4986362;28;20699;-75
2021/07/08 02:22:13;;;;;;;6.18;4.45;;;;;;;16.67;100.00;101214.25;4944400;28;20269;-73
2021/07/08 02:24:39;;;;;;;4.85;4.20;;;;;;;16.75;100.00;101219.03;4956276;28;20613;-74
2021/07/08 02:27:09;;;;;;;5.30;4.80;;;;;;;16.90;100.00;101218.78;4974450;28;20601;-74
2021/07/08 02:29:35;;;;;;;5.10;4.30;;;;;;;16.79;100.00;101219.25;4973274;28;20217;-73
2021/07/08 02:32:07;;;;;;;7.32;4.85;;;;;;;16.96;100.00;101215.69;4972681;28;20221;-73
2021/07/08 02:34:38;;;;;;;4.60;4.10;;;;;;;16.84;100.00;101214.50;4965231;28;20226;-73
2021/07/08 02:37:06;;;;;;;5.03;4.53;;;;;;;16.84;100.00;101200.78;4945015;28;20219;-74
2021/07/08 02:39:39;;;;;;;5.32;3.95;;;;;;;-138.14;100.00;77882.53;4968406;28;20202;-73
2021/07/08 02:42:05;;;;;;;4.85;4.35;;;;;;;16.80;100.00;101205.25;4984466;28;20214;-73
2021/07/08 02:44:33;;;;;;;5.27;4.50;;;;;;;16.71;100.00;101212.53;4975330;28;20566;-73
2021/07/08 02:47:00;;;;;;;4.45;4.05;;;;;;;16.70;100.00;101208.16;4969930;28;20219;-74
2021/07/08 02:49:25;;;;;;;6.85;3.90;;;;;;;16.70;100.00;101208.16;4962393;28;20261;-74
2021/07/08 02:51:58;;;;;;;4.72;4.20;;;;;;;16.64;100.00;101212.06;4940884;28;20226;-73
2021/07/08 02:54:24;;;;;;;4.40;4.00;;;;;;;16.74;100.00;101217.44;4972287;28;20198;-73
2021/07/08 02:56:51;;;;;;;5.30;4.80;;;;;;;16.61;100.00;101218.19;4974004;28;20611;-73
2021/07/08 02:59:19;;;;;;;6.03;4.13;;;;;;;16.67;100.00;101206.00;4973423;28;20300;-73
2021/07/08 03:01:47;;;;;;;6.97;3.97;;;;;;;16.62;100.00;101208.81;4956522;28;20218;-74
2021/07/08 03:04:15;;;;;;;5.30;4.05;;;;;;;16.56;100.00;101205.66;4972773;28;20170;-75
2021/07/08 03:06:43;;;;;;;5.32;4.13;;;;;;;16.58;100.00;101207.78;4972480;28;20222;-73
2021/07/08 03:09:10;;;;;;;4.10;3.78;;;;;;;16.36;100.00;101206.78;4945346;28;20269;-73
2021/07/08 03:11:36;;;;;;;4.97;3.85;;;;;;;16.55;100.00;101215.00;4956201;28;20218;-73
2021/07/08 03:14:04;;;;;;;4.32;3.90;;;;;;;16.57;100.00;101214.41;4968050;28;20229;-73
2021/07/08 03:16:29;;;;;;;4.97;4.10;;;;;;;16.38;100.00;101206.47;4939853;28;20249;-74
2021/07/08 03:18:55;;;;;;;6.33;4.03;;;;;;;16.48;100.00;101211.81;4940022;28;20213;-72
2021/07/08 03:21:20;;;;;;;5.07;3.93;;;;;;;16.35;100.00;101209.81;4977045;28;20218;-73
2021/07/08 03:23:51;;;;;;;4.13;3.73;;;;;;;16.28;100.00;101212.94;4957855;28;20174;-73
2021/07/08 03:26:21;;;;;;;5.13;4.30;;;;;;;16.39;100.00;101208.09;4971579;28;20625;-73
2021/07/08 03:28:49;;;;;;;5.07;4.40;;;;;;;16.35;100.00;101209.81;4943236;28;20220;-73
2021/07/08 03:31:15;;;;;;;4.35;3.83;;;;;;;16.43;100.00;101212.72;4973481;28;20222;-73
2021/07/08 03:33:43;;;;;;;8.53;4.47;;;;;;;16.44;100.00;101216.25;4988432;28;20307;-74
2021/07/08 03:36:11;;;;;;;6.95;4.22;;;;;;;16.50;100.00;101215.06;4972479;28;20321;-73
2021/07/08 03:38:39;;;;;;;4.72;4.32;;;;;;;16.61;100.00;101214.59;4957257;28;20234;-74
2021/07/08 03:41:07;;;;;;;5.03;4.00;;;;;;;16.61;100.00;101214.59;4961621;28;20233;-74
2021/07/08 03:43:33;;;;;;;4.70;4.30;;;;;;;16.47;100.00;101210.19;4972070;28;20244;-79
2021/07/08 03:45:58;;;;;;;4.60;4.20;;;;;;;16.58;100.00;101207.78;4971451;28;20222;-77
2021/07/08 03:48:25;;;;;;;4.63;4.22;;;;;;;16.75;100.00;101219.03;4959365;28;20229;-80
2021/07/08 03:50:51;;;;;;;7.57;4.95;;;;;;;16.73;100.00;101225.94;4937867;28;20222;-81
2021/07/08 03:53:17;;;;;;;6.30;4.90;;;;;;;16.89;100.00;101225.41;4955605;29;20704;-78
2021/07/08 03:55:42;;;;;;;5.78;5.28;;;;;;;16.98;100.00;101223.63;4971373;28;20244;-77
2021/07/08 03:58:08;;;;;;;6.05;4.95;;;;;;;17.15;100.00;101232.09;4953585;28;20190;-79
2021/07/08 04:00:38;;;;;;;5.68;4.70;;;;;;;17.28;100.00;101228.59;4970171;28;20218;-78
2021/07/08 04:03:11;;;;;;;6.22;5.40;;;;;;;17.33;100.00;101242.25;4959187;28;20274;-79
2021/07/08 04:05:39;;;;;;;7.53;4.88;;;;;;;17.32;100.00;101240.59;4973615;28;20607;-79
2021/07/08 04:08:05;;;;;;;6.30;5.40;;;;;;;17.28;100.00;101234.09;4939689;28;20178;-79
2021/07/08 04:10:31;;;;;;;6.10;5.47;;;;;;;17.45;100.00;101240.63;4941691;28;20226;-77
2021/07/08 04:12:59;;;;;;;5.63;4.93;;;;;;;17.39;100.00;101244.59;4974704;28;20198;-78
2021/07/08 04:15:26;;;;;;;6.28;4.53;;;;;;;17.37;100.00;101252.31;4956887;28;20222;-78
2021/07/08 04:17:52;;;;;;;5.30;4.80;;;;;;;17.58;100.00;101248.06;4962711;28;20185;-79
2021/07/08 04:20:19;;;;;;;6.82;5.20;;;;;;;17.70;100.00;101249.22;4977908;28;20214;-80
2021/07/08 04:22:46;;;;;;;6.13;5.07;;;;;;;17.90;100.00;101257.06;4953136;28;20194;-79
2021/07/08 04:25:16;;;;;;;7.32;5.20;;;;;;;17.82;100.00;101266.84;4958121;28;20206;-78
2021/07/08 04:27:44;;;;;;;5.90;5.28;;;;;;;17.74;100.00;101284.00;4955437;28;20182;-77
2021/07/08 04:30:11;;;;;;;6.15;5.65;;;;;;;17.49;100.00;101285.59;4952820;28;20230;-82
2021/07/08 04:32:36;;;;;;;15.80;14.15;;;;;;;17.83;100.00;101264.91;4950604;28;20683;-77
2021/07/08 04:35:05;;;;;;;48.03;40.50;;;;;;;17.92;100.00;101274.06;4951359;28;20198;-78
2021/07/08 04:37:31;;;;;;;8.30;6.60;;;;;;;17.76;100.00;101287.31;4955243;28;20261;-78
2021/07/08 04:39:59;;;;;;;6.72;5.65;;;;;;;17.64;100.00;101263.38;4990428;28;20198;-78
2021/07/08 04:42:24;;;;;;;6.97;5.75;;;;;;;18.14;100.00;101262.06;4957870;28;20303;-78
2021/07/08 04:44:54;;;;;;;7.00;6.20;;;;;;;18.09;100.00;101277.03;4976237;28;20189;-79
2021/07/08 04:47:20;;;;;;;6.63;5.88;;;;;;;18.38;100.00;101270.91;4958385;28;20289;-79
2021/07/08 04:49:46;;;;;;;5.85;5.25;;;;;;;18.55;100.00;101287.56;4952810;28;20623;-77
2021/07/08 04:52:14;;;;;;;5.78;5.15;;;;;;;18.61;100.00;101294.63;4948853;28;20273;-77
2021/07/08 04:54:39;;;;;;;5.20;4.80;;;;;;;18.65;100.00;101290.91;4922038;29;20214;-78
2021/07/08 04:57:07;;;;;;;6.47;5.82;;;;;;;18.59;100.00;101292.16;4977140;28;20228;-78
2021/07/08 04:59:35;;;;;;;7.72;5.35;;;;;;;18.72;100.00;101291.31;4954230;28;20226;-78
2021/07/08 05:02:01;;;;;;;6.07;5.50;;;;;;;18.72;100.00;101274.00;4946185;28;20213;-78
2021/07/08 05:04:26;;;;;;;6.00;5.40;;;;;;;18.83;100.00;101286.38;4986436;28;20190;-78
2021/07/08 05:06:52;;;;;;;5.85;5.25;;;;;;;18.86;100.00;101274.75;4991720;28;20232;-78
2021/07/08 05:09:18;;;;;;;6.18;5.20;;;;;;;18.62;100.00;101272.25;4989363;28;20257;-79
2021/07/08 05:11:43;;;;;;;5.88;5.32;;;;;;;18.34;100.00;101272.63;4959036;28;20355;-77
2021/07/08 05:14:09;;;;;;;6.03;5.57;;;;;;;18.64;100.00;101278.31;4983557;28;20214;-78
2021/07/08 05:16:35;;;;;;;6.88;5.88;;;;;;;18.76;100.00;101280.50;4967228;28;20532;-77
2021/07/08 05:19:02;;;;;;;8.85;7.60;;;;;;;18.99;100.00;101278.31;4961418;28;20591;-78
2021/07/08 05:21:28;;;;;;;5.90;5.32;;;;;;;19.18;100.00;101278.94;4956873;28;20230;-76
2021/07/08 05:24:01;;;;;;;6.97;5.35;;;;;;;19.23;100.00;101265.03;4962648;28;20218;-78
2021/07/08 05:26:29;;;;;;;6.95;5.15;;;;;;;19.27;100.00;101271.53;4990067;28;20261;-78
2021/07/08 05:28:57;;;;;;;5.93;5.32;;;;;;;19.23;100.00;101265.03;4987678;28;20209;-78
2021/07/08 05:31:23;;;;;;;5.57;5.07;;;;;;;18.83;100.00;101269.84;4993717;28;20258;-79
2021/07/08 05:33:51;;;;;;;5.32;4.85;;;;;;;19.01;100.00;101265.03;5009661;28;20190;-78
2021/07/08 05:36:20;;;;;;;5.53;5.03;;;;;;;19.13;100.00;101261.72;4968143;28;20718;-79
2021/07/08 05:38:46;;;;;;;6.45;5.40;;;;;;;19.43;100.00;101258.97;4945207;28;20688;-77
2021/07/08 05:41:16;;;;;;;7.82;5.32;;;;;;;19.59;100.00;101258.25;4984446;28;20253;-79
2021/07/08 05:43:44;;;;;;;6.40;5.88;;;;;;;19.27;100.00;101266.84;4976655;28;20213;-79
2021/07/08 05:46:10;;;;;;;6.97;5.50;;;;;;;19.44;100.00;101257.88;4958665;28;20264;-78
2021/07/08 05:48:35;;;;;;;6.22;5.28;;;;;;;19.62;100.00;101256.84;4959787;28;20206;-77
2021/07/08 05:51:01;;;;;;;6.50;5.47;;;;;;;19.66;100.00;101263.34;4939867;28;20247;-77
2021/07/08 05:53:29;;;;;;;6.80;5.70;;;;;;;19.89;100.00;101260.22;4958906;29;20183;-80
2021/07/08 05:55:57;;;;;;;5.25;4.72;;;;;;;20.35;100.00;101273.19;4940229;28;20218;-79
2021/07/08 05:58:25;;;;;;;5.30;4.80;;;;;;;20.72;100.00;101276.19;4988937;28;20186;-78
2021/07/08 06:00:50;;;;;;;5.65;4.57;;;;;;;20.80;100.00;101278.16;4994991;28;20907;-79
2021/07/08 06:03:16;;;;;;;5.05;4.47;;;;;;;21.12;100.00;101283.22;4982054;28;20175;-77
2021/07/08 06:05:45;;;;;;;5.65;4.05;;;;;;;21.21;100.00;101281.22;4956091;28;20711;-78
2021/07/08 06:08:11;;;;;;;4.72;4.13;;;;;;;20.98;100.00;101283.34;4974715;28;20191;-79
2021/07/08 06:10:41;;;;;;;5.65;4.35;;;;;;;21.01;100.00;101281.91;4943935;28;20226;-78
2021/07/08 06:13:11;;;;;;;4.47;3.97;;;;;;;21.12;100.00;101294.25;4993367;28;20193;-79
2021/07/08 06:15:37;;;;;;;4.75;4.00;;;;;;;21.25;100.00;101292.13;4979610;28;20313;-78
2021/07/08 06:18:07;;;;;;;6.47;4.38;;;;;;;21.44;100.00;101308.38;4961592;28;20854;-78
2021/07/08 06:20:35;;;;;;;4.10;3.70;;;;;;;21.48;100.00;101299.13;4941562;28;20712;-79
2021/07/08 06:23:01;;;;;;;4.72;3.63;;;;;;;21.67;100.00;101305.09;4960387;28;20186;-78
2021/07/08 06:25:30;;;;;;;4.95;4.15;;;;;;;21.49;100.00;101300.72;4958262;28;20253;-78
2021/07/08 06:27:58;;;;;;;5.32;3.70;;;;;;;21.57;100.00;101308.19;4978608;28;20166;-79
2021/07/08 06:30:28;;;;;;;4.20;3.42;;;;;;;21.74;100.00;101310.94;4993844;28;20300;-79
2021/07/08 06:32:54;;;;;;;5.50;3.72;;;;;;;21.86;100.00;101306.31;4959316;28;20278;-77
2021/07/08 06:35:20;;;;;;;4.05;3.42;;;;;;;22.06;100.00;101305.59;4957441;28;20595;-79
2021/07/08 06:37:48;;;;;;;4.55;3.70;;;;;;;22.14;100.00;101307.50;4944327;28;20193;-79
2021/07/08 06:40:17;;;;;;;4.60;3.42;;;;;;;22.30;100.00;101303.88;4975226;28;20273;-79
2021/07/08 06:42:48;;;;;;;4.47;3.55;;;;;;;22.34;100.00;101295.72;4960696;28;20269;-79
2021/07/08 06:45:17;;;;;;;6.70;3.72;;;;;;;22.49;100.00;101295.94;4991875;28;20188;-79
2021/07/08 06:47:45;;;;;;;4.85;3.85;;;;;;;22.46;100.00;101296.63;4959848;28;20201;-79
2021/07/08 06:50:11;;;;;;;4.63;4.10;;;;;;;22.16;100.00;101295.00;4956243;28;20590;-78
2021/07/08 06:52:37;;;;;;;5.95;3.80;;;;;;;22.44;100.00;101296.97;4951571;28;20197;-78
2021/07/08 06:55:04;;;;;;;6.32;3.70;;;;;;;22.10;100.00;101296.28;4975293;28;20206;-78
2021/07/08 06:57:32;;;;;;;5.28;3.50;;;;;;;22.46;100.00;101299.41;4926438;28;20334;-77
2021/07/08 07:00:01;;;;;;;4.90;3.63;;;;;;;22.91;100.00;101304.81;4948264;29;20246;-78
2021/07/08 07:02:26;;;;;;;5.13;3.22;;;;;;;22.97;100.00;101300.69;4944340;28;20211;-78
2021/07/08 07:04:54;;;;;;;5.35;3.00;;;;;;;23.25;100.00;101304.53;4959412;28;20178;-79
2021/07/08 07:07:24;;;;;;;6.18;3.17;;;;;;;23.46;98.80;101300.56;4973963;28;20284;-79
2021/07/08 07:09:52;;;;;;;6.18;3.40;;;;;;;23.34;96.37;101308.03;4955417;28;20298;-78
2021/07/08 07:12:18;;;;;;;4.30;3.05;;;;;;;23.49;95.45;101304.63;4956313;28;20660;-78
2021/07/08 07:14:43;;;;;;;2.83;2.55;;;;;;;23.72;94.43;101313.06;4959039;28;20582;-79
2021/07/08 07:17:09;;;;;;;5.28;2.78;;;;;;;23.86;92.71;101307.16;4974396;28;20642;-78
2021/07/08 07:19:37;;;;;;;6.13;2.60;;;;;;;24.04;93.46;101309.41;4957742;28;20225;-78
2021/07/08 07:22:05;;;;;;;3.00;2.28;;;;;;;24.34;94.05;101296.94;4958812;28;20229;-78
2021/07/08 07:24:30;;;;;;;5.03;2.40;;;;;;;24.47;88.42;101297.41;4974691;28;20183;-78
2021/07/08 07:26:58;;;;;;;4.20;2.33;;;;;;;24.34;83.65;101313.63;4947198;28;20218;-78
2021/07/08 07:29:24;;;;;;;3.90;2.53;;;;;;;24.58;84.41;101309.69;4955036;28;20694;-78
2021/07/08 07:31:50;;;;;;;6.07;2.70;;;;;;;24.47;84.46;101311.31;4957732;28;20234;-77
2021/07/08 07:34:20;;;;;;;3.47;2.25;;;;;;;24.64;86.30;101299.94;4958010;28;20734;-79
2021/07/08 07:36:46;;;;;;;3.47;2.10;;;;;;;24.65;82.39;101304.34;4959149;28;20241;-79
2021/07/08 07:39:12;;;;;;;4.18;2.40;;;;;;;24.72;82.75;101299.00;4991032;28;20198;-78
2021/07/08 07:41:37;;;;;;;4.25;2.35;;;;;;;24.86;82.33;101305.00;4958410;28;20226;-79
2021/07/08 07:44:03;;;;;;;5.03;2.30;;;;;;;25.03;83.96;101310.31;4959531;28;20194;-78
2021/07/08 07:46:29;;;;;;;6.78;2.38;;;;;;;24.88;85.69;101308.25;4989100;28;20663;-79
2021/07/08 07:48:59;;;;;;;3.47;2.70;;;;;;;24.90;85.30;101305.91;4979406;28;20218;-79
2021/07/08 07:51:25;;;;;;;3.00;2.70;;;;;;;24.77;86.70;101307.09;4962762;28;20253;-78
2021/07/08 07:53:51;;;;;;;6.18;3.15;;;;;;;24.91;86.79;101304.75;4979831;28;20170;-79
2021/07/08 07:56:19;;;;;;;5.13;2.72;;;;;;;24.93;86.87;101316.38;4990409;28;20235;-78
2021/07/08 07:58:44;;;;;;;6.05;2.60;;;;;;;24.97;88.03;101315.31;4992951;28;20221;-78
2021/07/08 08:01:11;;;;;;;5.93;2.60;;;;;;;25.15;85.94;101311.09;4979485;28;20285;-78
2021/07/08 08:03:39;;;;;;;3.67;2.50;;;;;;;25.54;85.03;101311.84;4979146;28;20175;-78
2021/07/08 08:08:56;;;;;;;5.65;2.75;;;;;;;25.38;84.52;101307.38;4967162;28;20214;-78
2021/07/08 08:11:22;;;;;;;7.57;3.85;;;;;;;25.69;83.01;101321.44;4962293;28;20226;-79
2021/07/08 08:13:50;;;;;;;5.07;2.53;;;;;;;25.68;83.75;101315.06;4960785;28;20212;-79
2021/07/08 08:16:15;;;;;;;3.13;2.70;;;;;;;25.98;81.09;101317.06;4955882;28;20273;-80
2021/07/08 08:18:41;;;;;;;3.75;2.42;;;;;;;26.00;81.80;101313.94;4949419;28;20195;-79
2021/07/08 08:21:12;;;;;;;3.65;2.38;;;;;;;26.11;77.67;101304.66;4963102;28;20222;-79
2021/07/08 08:23:38;;;;;;;2.72;2.22;;;;;;;26.51;74.61;101319.25;4942991;28;20195;-79
2021/07/08 08:26:03;;;;;;;2.92;2.08;;;;;;;26.60;75.39;101317.09;4970827;28;20262;-80
2021/07/08 08:28:31;;;;;;;4.13;2.38;;;;;;;25.97;76.11;101323.81;4944236;28;20210;-79
2021/07/08 08:30:59;;;;;;;4.93;2.22;;;;;;;26.36;75.74;101309.72;4979144;28;20293;-79
2021/07/08 08:33:25;;;;;;;2.33;2.10;;;;;;;26.56;75.67;101310.63;4981270;28;20186;-79
2021/07/08 08:35:51;;;;;;;3.53;2.22;;;;;;;26.84;74.56;101307.31;4961252;28;20249;-79
2021/07/08 08:38:16;;;;;;;3.40;2.30;;;;;;;26.67;72.30;101322.84;4976921;28;20204;-79
2021/07/08 08:40:46;;;;;;;4.35;2.28;;;;;;;26.78;73.03;101325.50;4961092;28;20592;-78
2021/07/08 08:43:14;;;;;;;4.00;2.50;;;;;;;26.86;72.74;101318.91;4977516;28;20221;-79
2021/07/08 08:45:40;;;;;;;3.83;2.55;;;;;;;26.69;71.24;101327.66;4974358;28;20743;-79
2021/07/08 08:48:07;;;;;;;3.20;2.83;;;;;;;26.58;70.20;101319.41;4976618;28;20194;-79
2021/07/08 08:50:37;;;;;;;4.47;2.50;;;;;;;26.52;72.36;101315.28;4947161;28;20301;-79
2021/07/08 08:53:05;;;;;;;5.38;2.40;;;;;;;26.84;72.94;101312.91;4948165;29;20194;-79
2021/07/08 08:55:35;;;;;;;4.75;2.90;;;;;;;26.85;72.35;101328.47;4965534;28;20234;-79
2021/07/08 08:58:02;;;;;;;5.15;3.00;;;;;;;26.76;71.32;101336.19;4961550;28;20190;-78
2021/07/08 09:00:28;;;;;;;4.97;3.17;;;;;;;26.43;72.44;101340.56;4967583;28;20313;-79
2021/07/08 09:03:03;;;;;;;3.50;3.13;;;;;;;26.77;73.99;101346.16;4979018;28;20171;-77
2021/07/08 09:05:28;;;;;;;6.10;4.28;;;;;;;26.58;72.40;101336.97;4961159;28;20683;-79
2021/07/08 09:08:19;;;;;;;5.38;4.10;;;;;;;26.37;74.73;101341.19;4944820;28;20178;-80
2021/07/08 09:11:02;;;;;;;5.13;3.80;;;;;;;25.87;73.26;101343.03;4976584;28;20725;-79
2021/07/08 09:13:47;;;;;;;6.32;3.92;;;;;;;25.18;76.78;101325.13;4963674;28;20179;-79
2021/07/08 09:16:15;;;;;;;7.70;3.97;;;;;;;25.54;78.51;101322.16;4977224;28;20226;-77
2021/07/08 09:18:54;;;;;;;4.72;3.45;;;;;;;25.94;74.83;101335.66;4975277;28;20823;-78
2021/07/08 09:21:25;;;;;;;7.57;3.40;;;;;;;26.01;72.96;101340.63;4960240;28;20591;-78
2021/07/08 09:24:02;;;;;;;5.35;3.28;;;;;;;26.49;73.10;101350.28;4943171;28;20187;-78
2021/07/08 09:26:30;;;;;;;4.28;3.00;;;;;;;26.43;71.62;101359.28;4983249;28;20365;-79
2021/07/08 09:29:12;;;;;;;6.57;3.10;;;;;;;26.53;70.81;101358.72;4947952;29;20191;-78
2021/07/08 09:31:40;;;;;;;4.38;2.90;;;;;;;26.43;74.21;101356.50;4972510;28;20575;-78
2021/07/08 09:34:16;;;;;;;6.18;3.13;;;;;;;26.48;72.75;101336.69;4960367;28;20183;-78
2021/07/08 09:36:42;;;;;;;3.58;3.22;;;;;;;26.50;73.70;101348.28;4960917;28;20285;-79
2021/07/08 09:39:10;;;;;;;5.32;3.00;;;;;;;26.74;72.57;101358.06;4959746;28;20201;-78
2021/07/08 09:41:44;;;;;;;3.60;2.85;;;;;;;26.90;71.31;101350.50;4955811;28;20281;-78
2021/07/08 09:44:20;;;;;;;5.32;3.15;;;;;;;27.26;71.06;101362.09;4946313;28;20198;-78
2021/07/08 09:46:45;;;;;;;2.90;2.47;;;;;;;27.20;65.54;101354.38;4959724;28;20218;-78
2021/07/08 09:49:16;;;;;;;4.15;2.60;;;;;;;26.76;68.88;101354.94;4959929;28;20207;-78
2021/07/08 09:51:44;;;;;;;5.25;2.72;;;;;;;26.83;66.74;101339.19;4973591;28;20229;-78
2021/07/08 09:56:46;;;;;;;6.63;2.78;;;;;;;26.86;59.96;101348.81;4955785;28;20246;-78
2021/07/08 09:59:20;;;;;;;4.75;2.60;;;;;;;27.55;59.86;101340.00;4975884;28;20257;-78
2021/07/08 10:01:53;;;;;;;4.28;2.60;;;;;;;27.88;63.12;101338.28;4939963;28;20221;-79
2021/07/08 10:04:23;;;;;;;4.88;2.78;;;;;;;27.64;65.53;101348.97;4960511;28;20261;-79
2021/07/08 10:06:49;;;;;;;3.72;2.50;;;;;;;28.11;64.76;101346.69;4947843;28;20254;-79
2021/07/08 10:09:17;;;;;;;3.15;2.85;;;;;;;28.10;59.93;101347.91;4959584;28;20233;-78
2021/07/08 10:11:54;;;;;;;7.72;2.95;;;;;;;27.99;61.25;101344.88;4959742;28;20214;-79
2021/07/08 10:14:20;;;;;;;5.97;3.50;;;;;;;27.64;61.58;101354.56;4945069;28;20275;-79
2021/07/08 10:16:50;;;;;;;5.45;3.17;;;;;;;27.96;62.14;101353.97;4942690;28;20260;-79
2021/07/08 10:19:21;;;;;;;4.65;2.97;;;;;;;28.07;61.68;101351.44;4976445;28;20246;-79
2021/07/08 10:21:52;;;;;;;4.75;3.15;;;;;;;27.84;62.19;101346.94;4955545;28;20347;-78
2021/07/08 10:24:21;;;;;;;5.05;2.90;;;;;;;27.69;64.03;101350.66;4967242;28;20178;-78
2021/07/08 10:26:47;;;;;;;6.20;2.92;;;;;;;27.65;65.66;101341.41;4960022;28;20232;-78
2021/07/08 10:29:17;;;;;;;3.88;2.67;;;;;;;28.15;62.76;101347.56;4995501;28;20271;-78
2021/07/08 10:31:47;;;;;;;3.78;3.00;;;;;;;27.87;62.61;101341.44;4967891;28;20248;-79
2021/07/08 10:34:15;;;;;;;4.60;2.83;;;;;;;28.05;61.79;101348.19;4943473;28;20194;-79
2021/07/08 10:36:48;;;;;;;4.75;3.00;;;;;;;27.90;61.08;101335.91;4965372;28;20722;-79
2021/07/08 10:39:19;;;;;;;4.40;2.67;;;;;;;28.17;57.92;101345.22;4959395;28;20209;-79
2021/07/08 10:41:46;;;;;;;3.65;2.53;;;;;;;28.18;62.16;101346.84;4953419;28;20214;-79
2021/07/08 10:44:33;;;;;;;4.30;2.60;;;;;;;28.12;60.23;101348.34;4966560;28;20598;-79
2021/07/08 10:47:04;;;;;;;4.47;2.50;;;;;;;28.44;58.38;101336.50;4980963;28;20222;-78
2021/07/08 10:49:42;;;;;;;4.95;2.60;;;;;;;28.81;53.26;101327.13;4974249;28;20257;-79
2021/07/08 10:52:09;;;;;;;3.60;2.30;;;;;;;28.56;53.14;101325.91;4950347;28;20292;-78
2021/07/08 10:54:34;;;;;;;4.32;2.50;;;;;;;28.15;55.00;101336.38;4960122;28;20210;-77
2021/07/08 10:57:04;;;;;;;3.95;2.50;;;;;;;28.53;56.94;101315.47;4964552;28;20218;-79
2021/07/08 10:59:45;;;;;;;3.42;2.30;;;;;;;28.59;55.02;101313.16;4975500;28;20209;-79
2021/07/08 11:02:47;;;;;;;4.88;2.33;;;;;;;28.88;52.64;101307.66;4953009;28;20214;-79
2021/07/08 11:05:15;;;;;;;5.85;2.20;;;;;;;29.33;51.57;101311.91;4959485;28;20240;-79
2021/07/08 11:07:46;;;;;;;3.55;1.90;;;;;;;29.10;51.95;101301.97;4986250;28;20179;-79
2021/07/08 11:10:15;;;;;;;6.25;1.80;;;;;;;29.00;47.74;101299.03;4959573;28;20207;-79
2021/07/08 11:12:47;;;;;;;3.67;1.98;;;;;;;28.67;49.78;101298.94;4957434;28;20187;-80
2021/07/08 11:15:15;;;;;;;3.92;1.95;;;;;;;29.12;47.36;101294.81;4956326;28;20282;-78
2021/07/08 11:17:42;;;;;;;3.70;1.63;;;;;;;29.13;48.10;101290.81;4957023;28;20286;-78
2021/07/08 11:20:31;;;;;;;4.05;2.00;;;;;;;29.24;45.83;101286.19;4942062;28;20253;-79
2021/07/08 11:23:43;;;;;;;3.65;2.00;;;;;;;28.33;48.14;101286.00;4959331;28;20686;-79
2021/07/08 11:26:13;;;;;;;4.18;2.05;;;;;;;27.62;47.72;101284.28;4974785;28;20218;-78
2021/07/08 11:28:43;;;;;;;6.13;2.22;;;;;;;27.87;48.94;101282.75;4949969;28;20213;-79
2021/07/08 11:31:14;;;;;;;3.35;1.70;;;;;;;28.18;51.47;101286.13;4956337;28;20223;-78